createdAt,value
2023-09-24T00:00:12.331Z,98.52
2023-09-24T00:01:12.353Z,98.73
2023-09-24T00:02:12.327Z,98.63
2023-09-24T00:03:12.472Z,98.68
2023-09-24T00:04:12.326Z,99.08
2023-09-24T00:05:12.296Z,99.79
2023-09-24T00:06:12.340Z,99.99
2023-09-24T00:07:12.306Z,99.74
2023-09-24T00:08:12.284Z,99.84
2023-09-24T00:09:12.265Z,99.79
2023-09-24T00:10:12.268Z,98.57
2023-09-24T00:11:12.252Z,99.18
2023-09-24T00:12:12.283Z,99.99
2023-09-24T00:13:12.238Z,99.59
2023-09-24T00:14:12.377Z,99.84
2023-09-24T00:15:12.244Z,99.74
2023-09-24T00:16:12.316Z,99.84
2023-09-24T00:17:12.221Z,99.74
2023-09-24T00:18:12.319Z,99.39
2023-09-24T00:19:12.191Z,99.59
2023-09-24T00:20:12.184Z,99.99
2023-09-24T00:21:13.215Z,99.69
2023-09-24T00:22:12.190Z,99.99
2023-09-24T00:23:12.169Z,99.99
2023-09-24T00:24:12.175Z,99.99
2023-09-24T00:25:12.164Z,99.99
2023-09-24T00:26:12.211Z,99.99
2023-09-24T00:27:12.143Z,99.99
2023-09-24T00:28:12.134Z,99.99
2023-09-24T00:29:12.293Z,99.99
2023-09-24T00:30:12.110Z,99.99
2023-09-24T00:31:12.131Z,99.99
2023-09-24T00:32:12.149Z,99.99
2023-09-24T00:33:12.272Z,99.99
2023-09-24T00:34:12.127Z,99.99
2023-09-24T00:35:12.110Z,99.99
2023-09-24T00:36:12.100Z,99.99
2023-09-24T00:37:12.075Z,99.99
2023-09-24T00:38:12.062Z,99.99
2023-09-24T00:39:12.081Z,99.99
2023-09-24T00:40:12.093Z,99.99
2023-09-24T00:41:12.063Z,99.99
2023-09-24T00:42:12.046Z,99.99
2023-09-24T00:43:12.023Z,99.99
2023-09-24T00:44:12.026Z,99.99
2023-09-24T00:45:12.026Z,99.99
2023-09-24T00:46:12.041Z,99.99
2023-09-24T00:47:11.992Z,99.99
2023-09-24T00:48:12.055Z,99.99
2023-09-24T00:49:11.979Z,99.99
2023-09-24T00:50:11.993Z,99.99
2023-09-24T00:51:12.093Z,99.99
2023-09-24T00:52:12.996Z,99.99
2023-09-24T00:53:11.954Z,99.99
2023-09-24T00:54:11.975Z,99.99
2023-09-24T00:55:12.036Z,99.99
2023-09-24T00:56:11.962Z,99.99
2023-09-24T00:57:11.957Z,99.99
2023-09-24T00:58:11.951Z,99.99
2023-09-24T00:59:12.095Z,99.99
2023-09-24T01:00:11.909Z,99.99
2023-09-24T01:01:11.934Z,99.99
2023-09-24T01:02:11.963Z,99.99
2023-09-24T01:03:12.084Z,99.99
2023-09-24T01:04:12.029Z,99.99
2023-09-24T01:05:11.863Z,99.99
2023-09-24T01:06:11.864Z,99.99
2023-09-24T01:07:11.861Z,99.99
2023-09-24T01:08:11.933Z,99.99
2023-09-24T01:09:11.890Z,99.99
2023-09-24T01:10:11.835Z,99.99
2023-09-24T01:11:11.836Z,99.99
2023-09-24T01:12:11.826Z,99.99
2023-09-24T01:13:11.840Z,99.99
2023-09-24T01:14:11.805Z,99.99
2023-09-24T01:15:11.794Z,99.99
2023-09-24T01:16:11.826Z,99.99
2023-09-24T01:17:11.795Z,99.99
2023-09-24T01:18:11.846Z,99.99
2023-09-24T01:19:11.777Z,99.99
2023-09-24T01:20:11.778Z,99.99
2023-09-24T01:21:11.808Z,99.99
2023-09-24T01:22:11.783Z,99.99
2023-09-24T01:23:11.769Z,99.99
2023-09-24T01:24:11.807Z,99.99
2023-09-24T01:25:11.732Z,99.99
2023-09-24T01:26:11.753Z,99.99
2023-09-24T01:27:11.732Z,99.99
2023-09-24T01:28:11.710Z,99.99
2023-09-24T01:29:11.706Z,99.99
2023-09-24T01:30:11.693Z,99.99
2023-09-24T01:31:11.681Z,99.99
2023-09-24T01:32:11.765Z,99.99
2023-09-24T01:33:11.776Z,99.99
2023-09-24T01:34:11.812Z,99.99
2023-09-24T01:35:11.683Z,99.99
2023-09-24T01:36:11.902Z,99.99
2023-09-24T01:37:11.666Z,99.99
2023-09-24T01:38:11.661Z,99.99
2023-09-24T01:39:11.634Z,99.99
2023-09-24T01:40:11.635Z,99.99
2023-09-24T01:41:11.984Z,99.99
2023-09-24T01:42:11.597Z,99.99
2023-09-24T01:43:11.596Z,99.99
2023-09-24T01:44:11.589Z,99.99
2023-09-24T01:45:11.611Z,99.99
2023-09-24T01:46:11.665Z,99.99
2023-09-24T01:47:11.572Z,99.99
2023-09-24T01:48:11.634Z,99.99
2023-09-24T01:49:11.556Z,99.99
2023-09-24T01:50:11.565Z,99.99
2023-09-24T01:51:11.557Z,99.99
2023-09-24T01:52:11.532Z,99.99
2023-09-24T01:53:11.527Z,99.99
2023-09-24T01:54:11.558Z,99.99
2023-09-24T01:55:11.535Z,99.99
2023-09-24T01:56:11.509Z,99.99
2023-09-24T01:57:11.503Z,99.99
2023-09-24T01:58:11.495Z,99.99
2023-09-24T01:59:11.487Z,99.99
2023-09-24T02:00:11.497Z,99.99
2023-09-24T02:01:11.543Z,99.99
2023-09-24T02:02:11.491Z,99.99
2023-09-24T02:03:11.570Z,99.99
2023-09-24T02:04:11.471Z,99.99
2023-09-24T02:05:11.511Z,99.99
2023-09-24T02:06:11.452Z,99.99
2023-09-24T02:07:11.464Z,99.99
2023-09-24T02:08:11.599Z,99.99
2023-09-24T02:09:11.508Z,99.99
2023-09-24T02:10:11.431Z,99.99
2023-09-24T02:11:11.406Z,99.99
2023-09-24T02:12:11.397Z,99.99
2023-09-24T02:13:11.517Z,99.99
2023-09-24T02:14:11.398Z,99.99
2023-09-24T02:15:11.369Z,99.99
2023-09-24T02:16:11.426Z,99.99
2023-09-24T02:17:11.359Z,99.99
2023-09-24T02:18:11.490Z,99.99
2023-09-24T02:19:11.402Z,99.99
2023-09-24T02:20:11.344Z,99.99
2023-09-24T02:21:11.345Z,99.99
2023-09-24T02:22:11.319Z,99.99
2023-09-24T02:23:11.347Z,99.99
2023-09-24T02:24:11.339Z,99.99
2023-09-24T02:25:11.306Z,99.99
2023-09-24T02:26:11.291Z,99.99
2023-09-24T02:27:11.292Z,99.99
2023-09-24T02:28:11.287Z,99.99
2023-09-24T02:29:11.265Z,99.99
2023-09-24T02:30:11.382Z,99.99
2023-09-24T02:31:11.301Z,99.99
2023-09-24T02:32:11.273Z,99.99
2023-09-24T02:33:11.372Z,99.99
2023-09-24T02:34:11.238Z,99.99
2023-09-24T02:35:11.224Z,99.99
2023-09-24T02:36:11.236Z,99.99
2023-09-24T02:37:11.256Z,99.99
2023-09-24T02:38:11.314Z,99.99
2023-09-24T02:39:11.190Z,99.99
2023-09-24T02:40:11.193Z,99.99
2023-09-24T02:41:11.189Z,99.99
2023-09-24T02:42:11.211Z,99.99
2023-09-24T02:43:11.183Z,99.99
2023-09-24T02:44:11.161Z,99.99
2023-09-24T02:45:11.166Z,99.99
2023-09-24T02:46:11.255Z,99.99
2023-09-24T02:47:11.175Z,99.99
2023-09-24T02:48:11.225Z,99.99
2023-09-24T02:49:11.138Z,99.99
2023-09-24T02:50:11.114Z,99.99
2023-09-24T02:51:11.157Z,99.99
2023-09-24T02:52:11.104Z,99.99
2023-09-24T02:53:11.095Z,99.99
2023-09-24T02:54:11.094Z,99.99
2023-09-24T02:55:11.084Z,99.99
2023-09-24T02:56:11.100Z,99.99
2023-09-24T02:57:11.072Z,99.99
2023-09-24T02:58:11.071Z,99.99
2023-09-24T02:59:11.102Z,99.99
2023-09-24T03:00:11.073Z,99.99
2023-09-24T03:01:11.123Z,99.99
2023-09-24T03:02:11.047Z,99.99
2023-09-24T03:03:11.323Z,99.99
2023-09-24T03:04:11.202Z,99.99
2023-09-24T03:05:11.038Z,99.99
2023-09-24T03:06:11.157Z,99.99
2023-09-24T03:07:10.994Z,99.99
2023-09-24T03:08:10.985Z,99.99
2023-09-24T03:09:10.990Z,99.99
2023-09-24T03:10:10.992Z,99.99
2023-09-24T03:11:11.005Z,99.99
2023-09-24T03:12:10.970Z,99.99
2023-09-24T03:13:10.960Z,99.99
2023-09-24T03:14:10.969Z,99.99
2023-09-24T03:15:10.953Z,99.99
2023-09-24T03:16:10.973Z,99.99
2023-09-24T03:17:10.922Z,99.99
2023-09-24T03:18:11.029Z,99.99
2023-09-24T03:19:10.929Z,99.99
2023-09-24T03:20:10.899Z,99.99
2023-09-24T03:21:10.927Z,99.99
2023-09-24T03:22:10.897Z,99.99
2023-09-24T03:23:10.910Z,99.99
2023-09-24T03:24:10.895Z,99.99
2023-09-24T03:25:10.868Z,99.99
2023-09-24T03:26:10.853Z,99.99
2023-09-24T03:27:10.857Z,99.99
2023-09-24T03:28:10.864Z,99.99
2023-09-24T03:29:10.858Z,99.99
2023-09-24T03:30:10.826Z,99.99
2023-09-24T03:31:10.824Z,99.99
2023-09-24T03:32:10.809Z,99.99
2023-09-24T03:33:10.891Z,99.99
2023-09-24T03:34:10.809Z,99.99
2023-09-24T03:35:10.792Z,99.99
2023-09-24T03:36:10.877Z,99.99
2023-09-24T03:37:10.783Z,99.99
2023-09-24T03:38:10.820Z,99.99
2023-09-24T03:39:10.994Z,99.99
2023-09-24T03:40:10.762Z,99.99
2023-09-24T03:41:10.842Z,99.99
2023-09-24T03:42:10.770Z,99.99
2023-09-24T03:43:10.757Z,99.99
2023-09-24T03:44:10.734Z,99.99
2023-09-24T03:45:10.725Z,99.99
2023-09-24T03:46:10.761Z,99.99
2023-09-24T03:47:10.743Z,99.99
2023-09-24T03:48:10.774Z,99.99
2023-09-24T03:49:10.703Z,99.99
2023-09-24T03:50:10.706Z,99.99
2023-09-24T03:51:10.681Z,99.99
2023-09-24T03:52:10.699Z,99.99
2023-09-24T03:53:10.664Z,99.99
2023-09-24T03:54:10.746Z,99.99
2023-09-24T03:55:11.685Z,99.99
2023-09-24T03:56:10.670Z,99.99
2023-09-24T03:57:10.672Z,99.99
2023-09-24T03:58:10.634Z,99.99
2023-09-24T03:59:10.630Z,99.99
2023-09-24T04:00:10.630Z,99.99
2023-09-24T04:01:10.696Z,99.99
2023-09-24T04:02:10.606Z,99.99
2023-09-24T04:03:10.666Z,99.99
2023-09-24T04:04:10.735Z,99.99
2023-09-24T04:05:10.619Z,99.99
2023-09-24T04:06:10.596Z,99.99
2023-09-24T04:07:10.575Z,99.99
2023-09-24T04:08:10.585Z,99.99
2023-09-24T04:09:10.564Z,99.99
2023-09-24T04:10:10.569Z,99.99
2023-09-24T04:11:10.579Z,99.99
2023-09-24T04:12:10.549Z,99.99
2023-09-24T04:13:10.539Z,99.99
2023-09-24T04:14:10.533Z,99.99
2023-09-24T04:15:10.533Z,99.99
2023-09-24T04:16:10.679Z,99.99
2023-09-24T04:17:10.524Z,99.99
2023-09-24T04:18:10.686Z,99.99
2023-09-24T04:19:10.517Z,99.99
2023-09-24T04:20:10.503Z,99.99
2023-09-24T04:21:10.474Z,99.99
2023-09-24T04:22:10.461Z,99.99
2023-09-24T04:23:10.456Z,99.99
2023-09-24T04:24:10.504Z,99.99
2023-09-24T04:25:10.477Z,99.99
2023-09-24T04:26:10.435Z,99.99
2023-09-24T04:27:10.427Z,99.99
2023-09-24T04:28:10.451Z,99.99
2023-09-24T04:29:10.462Z,99.99
2023-09-24T04:30:10.418Z,99.99
2023-09-24T04:31:10.412Z,99.99
2023-09-24T04:32:10.401Z,99.99
2023-09-24T04:33:10.503Z,99.99
2023-09-24T04:34:10.563Z,99.99
2023-09-24T04:35:10.369Z,99.99
2023-09-24T04:36:10.366Z,99.99
2023-09-24T04:37:10.421Z,99.99
2023-09-24T04:38:10.393Z,99.99
2023-09-24T04:39:10.360Z,99.99
2023-09-24T04:40:10.415Z,99.99
2023-09-24T04:41:10.346Z,99.99
2023-09-24T04:42:11.087Z,99.99
2023-09-24T04:43:10.327Z,99.99
2023-09-24T04:44:11.493Z,99.99
2023-09-24T04:45:11.383Z,99.99
2023-09-24T04:46:10.317Z,99.99
2023-09-24T04:47:10.320Z,99.99
2023-09-24T04:48:10.538Z,99.99
2023-09-24T04:49:10.436Z,99.99
2023-09-24T04:50:10.990Z,99.99
2023-09-24T04:51:10.849Z,99.99
2023-09-24T04:52:10.975Z,99.99
2023-09-24T04:53:10.274Z,99.99
2023-09-24T04:54:10.264Z,99.99
2023-09-24T04:55:10.234Z,99.99
2023-09-24T04:56:10.989Z,99.99
2023-09-24T04:57:11.267Z,99.99
2023-09-24T04:58:10.259Z,99.99
2023-09-24T04:59:10.209Z,99.99
2023-09-24T05:00:10.999Z,99.99
2023-09-24T05:01:10.209Z,99.99
2023-09-24T05:02:11.833Z,99.99
2023-09-24T05:03:10.283Z,99.99
2023-09-24T05:04:10.318Z,99.99
2023-09-24T05:05:10.260Z,99.99
2023-09-24T05:06:10.403Z,99.99
2023-09-24T05:07:10.221Z,99.99
2023-09-24T05:08:10.349Z,99.99
2023-09-24T05:09:10.184Z,99.99
2023-09-24T05:10:11.365Z,99.99
2023-09-24T05:11:10.127Z,99.99
2023-09-24T05:12:10.164Z,99.99
2023-09-24T05:13:11.297Z,99.99
2023-09-24T05:14:10.186Z,99.99
2023-09-24T05:15:10.960Z,99.99
2023-09-24T05:16:10.381Z,99.99
2023-09-24T05:17:10.209Z,99.99
2023-09-24T05:18:10.234Z,99.99
2023-09-24T05:19:10.056Z,99.99
2023-09-24T05:20:10.250Z,99.99
2023-09-24T05:21:10.062Z,99.99
2023-09-24T05:22:10.069Z,99.99
2023-09-24T05:23:10.034Z,99.99
2023-09-24T05:24:10.158Z,99.99
2023-09-24T05:25:10.075Z,99.99
2023-09-24T05:26:10.037Z,99.99
2023-09-24T05:27:10.060Z,99.99
2023-09-24T05:28:09.989Z,99.99
2023-09-24T05:29:10.003Z,99.99
2023-09-24T05:30:10.046Z,99.99
2023-09-24T05:31:10.039Z,99.99
2023-09-24T05:32:09.979Z,99.99
2023-09-24T05:33:10.003Z,99.99
2023-09-24T05:34:09.946Z,99.99
2023-09-24T05:35:09.960Z,99.99
2023-09-24T05:36:09.944Z,99.99
2023-09-24T05:37:09.951Z,99.99
2023-09-24T05:38:09.930Z,99.99
2023-09-24T05:39:09.997Z,99.99
2023-09-24T05:40:12.351Z,99.99
2023-09-24T05:41:10.917Z,99.99
2023-09-24T05:42:09.900Z,99.99
2023-09-24T05:43:10.906Z,99.99
2023-09-24T05:44:09.890Z,99.99
2023-09-24T05:45:09.926Z,99.99
2023-09-24T05:46:09.907Z,99.99
2023-09-24T05:47:09.876Z,99.99
2023-09-24T05:48:10.990Z,99.99
2023-09-24T05:49:09.853Z,99.99
2023-09-24T05:50:09.853Z,99.99
2023-09-24T05:51:09.904Z,99.99
2023-09-24T05:52:09.817Z,99.99
2023-09-24T05:53:09.833Z,99.99
2023-09-24T05:54:09.852Z,99.99
2023-09-24T05:55:09.961Z,99.99
2023-09-24T05:56:09.792Z,99.99
2023-09-24T05:57:09.989Z,99.99
2023-09-24T05:58:09.788Z,99.99
2023-09-24T05:59:09.766Z,99.99
2023-09-24T06:00:09.964Z,99.99
2023-09-24T06:01:09.754Z,99.99
2023-09-24T06:02:09.746Z,99.99
2023-09-24T06:03:09.852Z,99.99
2023-09-24T06:04:09.891Z,99.99
2023-09-24T06:05:10.752Z,99.99
2023-09-24T06:06:09.757Z,99.99
2023-09-24T06:07:09.737Z,99.99
2023-09-24T06:08:09.730Z,99.99
2023-09-24T06:09:09.854Z,99.99
2023-09-24T06:10:09.691Z,99.99
2023-09-24T06:11:09.733Z,99.99
2023-09-24T06:12:09.792Z,99.99
2023-09-24T06:13:09.745Z,99.99
2023-09-24T06:14:09.776Z,99.99
2023-09-24T06:15:09.745Z,99.99
2023-09-24T06:16:09.838Z,99.99
2023-09-24T06:17:09.742Z,99.99
2023-09-24T06:18:09.696Z,99.99
2023-09-24T06:19:10.880Z,99.99
2023-09-24T06:20:09.617Z,99.99
2023-09-24T06:21:09.659Z,99.99
2023-09-24T06:22:10.674Z,99.99
2023-09-24T06:23:09.636Z,99.99
2023-09-24T06:24:09.630Z,99.99
2023-09-24T06:25:09.597Z,99.99
2023-09-24T06:26:09.668Z,99.99
2023-09-24T06:27:09.621Z,99.99
2023-09-24T06:28:10.817Z,99.99
2023-09-24T06:29:12.215Z,99.99
2023-09-24T06:30:10.660Z,99.99
2023-09-24T06:31:09.563Z,99.99
2023-09-24T06:32:09.526Z,99.99
2023-09-24T06:33:09.607Z,99.99
2023-09-24T06:34:09.536Z,99.99
2023-09-24T06:35:09.543Z,99.99
2023-09-24T06:36:09.558Z,99.99
2023-09-24T06:37:09.503Z,99.99
2023-09-24T06:38:09.485Z,99.99
2023-09-24T06:39:09.638Z,99.99
2023-09-24T06:40:09.521Z,99.99
2023-09-24T06:41:09.479Z,99.99
2023-09-24T06:42:09.508Z,99.99
2023-09-24T06:43:09.649Z,99.99
2023-09-24T06:44:09.491Z,99.99
2023-09-24T06:45:09.685Z,99.99
2023-09-24T06:46:10.152Z,99.99
2023-09-24T06:47:09.434Z,99.99
2023-09-24T06:48:18.654Z,99.99
2023-09-24T06:49:11.460Z,99.99
2023-09-24T06:50:09.446Z,99.99
2023-09-24T06:51:09.578Z,99.99
2023-09-24T06:52:09.398Z,99.99
2023-09-24T06:53:09.397Z,99.99
2023-09-24T06:54:09.465Z,99.99
2023-09-24T06:55:09.771Z,99.99
2023-09-24T06:56:09.512Z,99.99
2023-09-24T06:57:09.572Z,99.88
2023-09-24T06:58:09.960Z,99.78
2023-09-24T06:59:09.662Z,99.84
2023-09-24T07:00:09.365Z,99.93
2023-09-24T07:01:09.351Z,99.11
2023-09-24T07:02:09.406Z,99.88
2023-09-24T07:03:09.554Z,99.73
2023-09-24T07:04:09.479Z,99.52
2023-09-24T07:05:09.294Z,99.18
2023-09-24T07:06:09.400Z,98.86
2023-09-24T07:07:09.319Z,98.97
2023-09-24T07:08:09.315Z,98.91
2023-09-24T07:09:09.381Z,99.02
2023-09-24T07:10:09.282Z,98.71
2023-09-24T07:11:09.301Z,99.32
2023-09-24T07:12:09.357Z,98.56
2023-09-24T07:13:09.298Z,98.36
2023-09-24T07:14:09.240Z,98.66
2023-09-24T07:15:09.260Z,99.07
2023-09-24T07:16:09.332Z,98.93
2023-09-24T07:17:09.238Z,98.72
2023-09-24T07:18:09.339Z,98.05
2023-09-24T07:19:09.198Z,98.21
2023-09-24T07:20:09.183Z,98.00
2023-09-24T07:21:19.596Z,97.90
2023-09-24T07:22:11.217Z,98.36
2023-09-24T07:23:09.200Z,97.60
2023-09-24T07:24:09.190Z,97.70
2023-09-24T07:25:09.186Z,97.45
2023-09-24T07:26:09.384Z,97.04
2023-09-24T07:27:09.192Z,96.43
2023-09-24T07:28:09.157Z,97.96
2023-09-24T07:29:09.121Z,97.81
2023-09-24T07:30:09.137Z,95.87
2023-09-24T07:31:09.139Z,95.06
2023-09-24T07:32:09.247Z,96.22
2023-09-24T07:33:09.142Z,96.79
2023-09-24T07:34:09.109Z,95.77
2023-09-24T07:35:09.104Z,95.36
2023-09-24T07:36:19.972Z,95.26
2023-09-24T07:37:15.015Z,95.67
2023-09-24T07:38:10.082Z,95.57
2023-09-24T07:39:09.110Z,95.42
2023-09-24T07:40:09.058Z,95.42
2023-09-24T07:41:09.075Z,95.52
2023-09-24T07:42:09.082Z,95.32
2023-09-24T07:43:09.019Z,95.28
2023-09-24T07:44:09.020Z,94.82
2023-09-24T07:45:09.224Z,93.90
2023-09-24T07:46:09.050Z,94.42
2023-09-24T07:47:09.026Z,94.01
2023-09-24T07:48:09.071Z,94.01
2023-09-24T07:49:08.999Z,93.96
2023-09-24T07:50:11.179Z,93.05
2023-09-24T07:51:09.002Z,93.15
2023-09-24T07:52:09.008Z,93.05
2023-09-24T07:53:08.961Z,93.41
2023-09-24T07:54:08.959Z,93.51
2023-09-24T07:55:08.967Z,92.55
2023-09-24T07:56:08.962Z,93.16
2023-09-24T07:57:09.013Z,93.06
2023-09-24T07:58:08.943Z,93.41
2023-09-24T07:59:08.979Z,93.86
2023-09-24T08:00:08.973Z,93.25
2023-09-24T08:01:08.942Z,94.84
2023-09-24T08:02:08.887Z,93.06
2023-09-24T08:03:08.967Z,93.67
2023-09-24T08:04:08.887Z,93.16
2023-09-24T08:05:08.876Z,92.91
2023-09-24T08:06:08.921Z,93.02
2023-09-24T08:07:08.849Z,91.69
2023-09-24T08:08:10.485Z,93.26
2023-09-24T08:09:23.056Z,93.12
2023-09-24T08:10:10.925Z,91.39
2023-09-24T08:11:09.176Z,91.60
2023-09-24T08:12:08.851Z,91.43
2023-09-24T08:13:08.842Z,92.82
2023-09-24T08:14:08.884Z,91.45
2023-09-24T08:15:08.930Z,91.00
2023-09-24T08:16:08.993Z,90.23
2023-09-24T08:17:08.934Z,91.14
2023-09-24T08:18:08.977Z,91.29
2023-09-24T08:19:08.892Z,92.86
2023-09-24T08:20:08.879Z,93.22
2023-09-24T08:21:08.795Z,91.65
2023-09-24T08:22:08.833Z,91.51
2023-09-24T08:23:08.761Z,90.86
2023-09-24T08:24:08.843Z,90.81
2023-09-24T08:25:08.734Z,89.70
2023-09-24T08:26:08.729Z,89.39
2023-09-24T08:27:08.769Z,90.51
2023-09-24T08:28:08.749Z,89.65
2023-09-24T08:29:08.706Z,90.92
2023-09-24T08:30:08.728Z,90.31
2023-09-24T08:31:08.716Z,89.19
2023-09-24T08:32:08.735Z,89.04
2023-09-24T08:33:08.731Z,87.79
2023-09-24T08:34:08.659Z,88.13
2023-09-24T08:35:08.680Z,90.06
2023-09-24T08:36:08.742Z,88.70
2023-09-24T08:37:08.707Z,88.84
2023-09-24T08:38:08.621Z,88.49
2023-09-24T08:39:08.790Z,89.01
2023-09-24T08:40:08.627Z,88.66
2023-09-24T08:41:08.635Z,87.34
2023-09-24T08:42:08.700Z,87.43
2023-09-24T08:43:09.613Z,88.54
2023-09-24T08:44:08.589Z,89.55
2023-09-24T08:45:10.983Z,89.51
2023-09-24T08:46:09.608Z,88.56
2023-09-24T08:47:08.558Z,87.20
2023-09-24T08:48:08.669Z,86.59
2023-09-24T08:49:08.622Z,85.99
2023-09-24T08:50:08.587Z,86.83
2023-09-24T08:51:08.603Z,87.74
2023-09-24T08:52:08.545Z,87.36
2023-09-24T08:53:08.547Z,85.13
2023-09-24T08:54:08.544Z,85.05
2023-09-24T08:55:08.578Z,85.02
2023-09-24T08:56:08.540Z,83.74
2023-09-24T08:57:08.565Z,84.39
2023-09-24T08:58:08.511Z,86.87
2023-09-24T08:59:08.470Z,84.25
2023-09-24T09:00:08.549Z,83.68
2023-09-24T09:01:08.539Z,83.86
2023-09-24T09:02:08.498Z,85.78
2023-09-24T09:03:08.504Z,86.35
2023-09-24T09:04:09.552Z,85.19
2023-09-24T09:05:08.458Z,84.08
2023-09-24T09:06:08.566Z,85.24
2023-09-24T09:07:08.425Z,85.03
2023-09-24T09:08:08.422Z,86.45
2023-09-24T09:09:08.680Z,85.60
2023-09-24T09:10:08.412Z,85.96
2023-09-24T09:11:08.395Z,84.97
2023-09-24T09:12:08.493Z,83.48
2023-09-24T09:13:08.396Z,80.11
2023-09-24T09:14:08.691Z,78.32
2023-09-24T09:15:08.407Z,78.55
2023-09-24T09:16:08.380Z,77.55
2023-09-24T09:17:08.340Z,76.40
2023-09-24T09:18:08.473Z,77.00
2023-09-24T09:19:08.716Z,78.28
2023-09-24T09:20:08.327Z,76.17
2023-09-24T09:21:08.380Z,77.34
2023-09-24T09:22:08.340Z,75.76
2023-09-24T09:23:08.687Z,73.27
2023-09-24T09:24:08.388Z,73.78
2023-09-24T09:25:08.311Z,72.03
2023-09-24T09:26:08.344Z,72.84
2023-09-24T09:27:08.308Z,73.51
2023-09-24T09:28:08.311Z,78.71
2023-09-24T09:29:08.277Z,75.83
2023-09-24T09:30:08.289Z,75.99
2023-09-24T09:31:08.372Z,74.88
2023-09-24T09:32:08.338Z,70.59
2023-09-24T09:33:08.322Z,72.44
2023-09-24T09:34:08.230Z,71.90
2023-09-24T09:35:08.263Z,72.14
2023-09-24T09:36:08.271Z,71.87
2023-09-24T09:37:08.286Z,69.52
2023-09-24T09:38:08.228Z,66.85
2023-09-24T09:39:08.252Z,67.01
2023-09-24T09:40:08.217Z,70.59
2023-09-24T09:41:08.237Z,66.31
2023-09-24T09:42:09.011Z,62.84
2023-09-24T09:43:08.191Z,61.18
2023-09-24T09:44:08.208Z,61.49
2023-09-24T09:45:08.219Z,59.79
2023-09-24T09:46:08.254Z,61.59
2023-09-24T09:47:08.141Z,60.62
2023-09-24T09:48:08.222Z,57.19
2023-09-24T09:49:08.138Z,58.59
2023-09-24T09:50:08.212Z,58.56
2023-09-24T09:51:08.203Z,57.64
2023-09-24T09:52:09.001Z,56.85
2023-09-24T09:53:08.132Z,57.71
2023-09-24T09:54:08.226Z,58.91
2023-09-24T09:55:08.122Z,56.70
2023-09-24T09:56:08.105Z,55.91
2023-09-24T09:57:08.208Z,61.48
2023-09-24T09:58:22.239Z,62.81
2023-09-24T09:59:10.076Z,60.65
2023-09-24T10:00:08.130Z,59.61
2023-09-24T10:01:09.348Z,56.71
2023-09-24T10:02:08.079Z,58.68
2023-09-24T10:03:08.158Z,56.98
2023-09-24T10:04:08.421Z,57.26
2023-09-24T10:05:08.102Z,57.61
2023-09-24T10:06:08.117Z,62.44
2023-09-24T10:07:08.000Z,62.24
2023-09-24T10:08:08.004Z,62.97
2023-09-24T10:09:08.016Z,61.71
2023-09-24T10:10:08.034Z,60.59
2023-09-24T10:11:08.004Z,56.07
2023-09-24T10:12:08.094Z,57.51
2023-09-24T10:13:07.963Z,55.83
2023-09-24T10:14:09.131Z,54.31
2023-09-24T10:15:08.099Z,52.32
2023-09-24T10:16:08.141Z,52.92
2023-09-24T10:17:07.920Z,55.19
2023-09-24T10:18:08.026Z,54.83
2023-09-24T10:19:08.934Z,52.27
2023-09-24T10:20:08.931Z,52.24
2023-09-24T10:21:07.996Z,51.20
2023-09-24T10:22:07.900Z,50.16
2023-09-24T10:23:07.880Z,49.81
2023-09-24T10:24:08.118Z,50.16
2023-09-24T10:25:08.066Z,52.39
2023-09-24T10:26:07.874Z,52.79
2023-09-24T10:27:09.518Z,54.41
2023-09-24T10:28:09.466Z,53.46
2023-09-24T10:29:08.874Z,52.81
2023-09-24T10:30:08.014Z,53.66
2023-09-24T10:31:08.798Z,54.64
2023-09-24T10:32:08.491Z,56.45
2023-09-24T10:33:07.900Z,59.03
2023-09-24T10:34:08.006Z,58.81
2023-09-24T10:35:07.866Z,59.62
2023-09-24T10:36:08.862Z,56.29
2023-09-24T10:37:07.781Z,53.59
2023-09-24T10:38:07.769Z,53.59
2023-09-24T10:39:08.529Z,57.41
2023-09-24T10:40:07.825Z,53.41
2023-09-24T10:41:08.507Z,53.09
2023-09-24T10:42:07.818Z,49.34
2023-09-24T10:43:07.803Z,50.05
2023-09-24T10:44:07.778Z,51.35
2023-09-24T10:45:08.010Z,52.97
2023-09-24T10:46:07.764Z,50.88
2023-09-24T10:47:07.770Z,50.33
2023-09-24T10:48:08.634Z,49.29
2023-09-24T10:49:07.751Z,49.26
2023-09-24T10:50:07.771Z,51.45
2023-09-24T10:51:07.818Z,51.40
2023-09-24T10:52:07.661Z,51.17
2023-09-24T10:53:08.577Z,48.96
2023-09-24T10:54:07.685Z,48.44
2023-09-24T10:55:07.770Z,46.64
2023-09-24T10:56:11.883Z,52.57
2023-09-24T10:57:08.719Z,54.51
2023-09-24T10:58:07.695Z,51.54
2023-09-24T10:59:07.753Z,49.53
2023-09-24T11:00:08.578Z,51.52
2023-09-24T11:01:07.866Z,50.95
2023-09-24T11:02:07.781Z,52.92
2023-09-24T11:03:07.792Z,52.47
2023-09-24T11:04:07.686Z,51.17
2023-09-24T11:05:07.626Z,49.21
2023-09-24T11:06:07.603Z,46.89
2023-09-24T11:07:07.599Z,47.80
2023-09-24T11:08:07.777Z,48.86
2023-09-24T11:09:07.594Z,55.64
2023-09-24T11:10:07.552Z,55.63
2023-09-24T11:11:07.693Z,55.49
2023-09-24T11:12:07.625Z,57.72
2023-09-24T11:13:07.547Z,56.74
2023-09-24T11:14:07.518Z,58.86
2023-09-24T11:15:15.747Z,56.37
2023-09-24T11:16:10.570Z,58.19
2023-09-24T11:17:07.605Z,55.51
2023-09-24T11:18:07.697Z,54.24
2023-09-24T11:19:07.792Z,54.19
2023-09-24T11:20:07.505Z,57.68
2023-09-24T11:21:07.546Z,59.02
2023-09-24T11:22:07.533Z,53.77
2023-09-24T11:23:07.491Z,52.69
2023-09-24T11:24:07.528Z,51.89
2023-09-24T11:25:07.661Z,49.51
2023-09-24T11:26:07.435Z,47.65
2023-09-24T11:27:08.553Z,48.57
2023-09-24T11:28:07.438Z,50.35
2023-09-24T11:29:07.434Z,50.85
2023-09-24T11:30:07.418Z,51.97
2023-09-24T11:31:07.455Z,53.24
2023-09-24T11:32:07.401Z,51.22
2023-09-24T11:33:07.540Z,54.54
2023-09-24T11:34:07.437Z,54.84
2023-09-24T11:35:07.366Z,54.22
2023-09-24T11:36:07.426Z,54.47
2023-09-24T11:37:07.433Z,55.96
2023-09-24T11:38:07.388Z,53.59
2023-09-24T11:39:07.420Z,53.91
2023-09-24T11:40:07.359Z,53.02
2023-09-24T11:41:07.342Z,54.49
2023-09-24T11:42:07.371Z,56.79
2023-09-24T11:43:07.348Z,56.21
2023-09-24T11:44:07.347Z,55.41
2023-09-24T11:45:07.351Z,54.31
2023-09-24T11:46:07.281Z,51.50
2023-09-24T11:47:07.294Z,51.22
2023-09-24T11:48:07.700Z,53.69
2023-09-24T11:49:08.269Z,54.77
2023-09-24T11:50:07.283Z,55.07
2023-09-24T11:51:07.326Z,54.39
2023-09-24T11:52:07.267Z,51.62
2023-09-24T11:53:07.260Z,52.24
2023-09-24T11:54:07.256Z,53.39
2023-09-24T11:55:07.231Z,52.79
2023-09-24T11:56:07.224Z,55.13
2023-09-24T11:57:07.618Z,52.74
2023-09-24T11:58:07.226Z,52.69
2023-09-24T11:59:07.222Z,53.29
2023-09-24T12:00:07.246Z,52.49
2023-09-24T12:01:07.238Z,50.15
2023-09-24T12:02:07.220Z,51.87
2023-09-24T12:03:07.296Z,51.45
2023-09-24T12:04:07.312Z,51.37
2023-09-24T12:05:16.314Z,48.90
2023-09-24T12:06:09.221Z,49.07
2023-09-24T12:07:07.186Z,45.79
2023-09-24T12:08:07.171Z,47.42
2023-09-24T12:09:07.208Z,51.25
2023-09-24T12:10:07.122Z,49.46
2023-09-24T12:11:07.131Z,48.30
2023-09-24T12:12:07.152Z,48.65
2023-09-24T12:13:07.109Z,46.05
2023-09-24T12:14:07.091Z,47.17
2023-09-24T12:15:07.219Z,48.74
2023-09-24T12:16:07.157Z,47.78
2023-09-24T12:17:07.084Z,46.30
2023-09-24T12:18:07.148Z,48.22
2023-09-24T12:19:07.081Z,47.53
2023-09-24T12:20:07.167Z,48.19
2023-09-24T12:21:07.082Z,49.73
2023-09-24T12:22:07.056Z,49.88
2023-09-24T12:23:07.020Z,49.02
2023-09-24T12:24:07.064Z,46.39
2023-09-24T12:25:07.082Z,48.72
2023-09-24T12:26:07.021Z,48.74
2023-09-24T12:27:07.033Z,52.94
2023-09-24T12:28:06.985Z,52.79
2023-09-24T12:29:06.993Z,51.32
2023-09-24T12:30:07.016Z,48.49
2023-09-24T12:31:07.007Z,48.02
2023-09-24T12:32:06.972Z,46.33
2023-09-24T12:33:07.970Z,43.39
2023-09-24T12:34:07.001Z,42.58
2023-09-24T12:35:06.947Z,42.58
2023-09-24T12:36:06.970Z,44.13
2023-09-24T12:37:06.926Z,44.28
2023-09-24T12:38:06.947Z,44.23
2023-09-24T12:39:06.958Z,43.17
2023-09-24T12:40:06.941Z,42.70
2023-09-24T12:41:06.934Z,43.46
2023-09-24T12:42:06.923Z,43.43
2023-09-24T12:43:07.058Z,43.04
2023-09-24T12:44:06.888Z,43.67
2023-09-24T12:45:06.862Z,44.94
2023-09-24T12:46:06.917Z,47.95
2023-09-24T12:47:06.871Z,49.16
2023-09-24T12:48:06.921Z,53.19
2023-09-24T12:49:06.882Z,54.37
2023-09-24T12:50:06.901Z,54.04
2023-09-24T12:51:06.880Z,54.34
2023-09-24T12:52:06.891Z,54.14